createdAt,value
2023-09-24T00:01:27.571Z,15.31
2023-09-24T00:04:00.913Z,15.27
2023-09-24T00:06:30.647Z,15.29
2023-09-24T00:09:00.253Z,15.33
2023-09-24T00:11:29.876Z,15.32
2023-09-24T00:13:59.763Z,15.28
2023-09-24T00:16:29.566Z,15.41
2023-09-24T00:19:04.529Z,15.43
2023-09-24T00:21:34.088Z,15.47
2023-09-24T00:24:04.776Z,15.48
2023-09-24T00:26:34.403Z,15.48
2023-09-24T00:29:04.423Z,15.49
2023-09-24T00:31:34.063Z,15.43
2023-09-24T00:34:06.263Z,15.48
2023-09-24T00:36:36.874Z,15.55
2023-09-24T00:39:06.783Z,15.58
2023-09-24T00:41:36.602Z,15.58
2023-09-24T00:44:07.964Z,15.60
2023-09-24T00:46:37.720Z,15.60
2023-09-24T00:49:10.395Z,15.53
2023-09-24T00:51:39.795Z,15.52
2023-09-24T00:54:10.193Z,15.51
2023-09-24T00:56:40.530Z,15.55
2023-09-24T00:59:10.814Z,15.57
2023-09-24T01:01:40.454Z,15.59
2023-09-24T01:04:14.388Z,15.52
2023-09-24T01:06:44.209Z,15.49
2023-09-24T01:09:14.299Z,15.51
2023-09-24T01:11:44.471Z,15.48
2023-09-24T01:14:14.609Z,15.51
2023-09-24T01:16:44.915Z,15.52
2023-09-24T01:19:18.028Z,15.57
2023-09-24T01:21:51.203Z,15.54
2023-09-24T01:24:28.424Z,15.56
2023-09-24T01:26:58.665Z,15.53
2023-09-24T01:29:29.446Z,15.38
2023-09-24T01:31:59.032Z,15.39
2023-09-24T01:34:28.747Z,15.36
2023-09-24T01:36:59.859Z,15.39
2023-09-24T01:39:33.887Z,15.42
2023-09-24T01:42:03.593Z,15.43
2023-09-24T01:44:33.939Z,15.34
2023-09-24T01:47:04.765Z,15.35
2023-09-24T01:49:35.343Z,15.26
2023-09-24T01:52:08.659Z,15.22
2023-09-24T01:54:40.823Z,15.26
2023-09-24T01:57:11.246Z,15.24
2023-09-24T01:59:41.262Z,15.20
2023-09-24T02:02:10.931Z,15.16
2023-09-24T02:04:40.902Z,15.14
2023-09-24T02:07:13.476Z,15.14
2023-09-24T02:09:46.108Z,15.13
2023-09-24T02:12:29.922Z,15.03
2023-09-24T02:15:00.161Z,15.06
2023-09-24T02:17:30.805Z,15.04
2023-09-24T02:20:03.632Z,15.04
2023-09-24T02:22:33.415Z,15.02
2023-09-24T02:27:43.995Z,14.91
2023-09-24T02:30:15.206Z,14.80
2023-09-24T02:32:46.256Z,14.83
2023-09-24T02:35:16.517Z,14.83
2023-09-24T02:37:48.902Z,14.74
2023-09-24T02:40:24.159Z,14.78
2023-09-24T02:42:55.949Z,14.77
2023-09-24T02:45:27.965Z,14.78
2023-09-24T02:47:57.989Z,14.83
2023-09-24T02:50:30.503Z,14.81
2023-09-24T02:53:02.266Z,14.78
2023-09-24T02:55:35.169Z,14.83
2023-09-24T02:58:09.756Z,14.77
2023-09-24T03:00:43.258Z,14.77
2023-09-24T03:03:17.301Z,14.75
2023-09-24T03:05:47.581Z,14.74
2023-09-24T03:08:17.807Z,14.69
2023-09-24T03:10:50.635Z,14.68
2023-09-24T03:13:20.270Z,14.70
2023-09-24T03:15:49.929Z,14.72
2023-09-24T03:18:19.572Z,14.75
2023-09-24T03:20:49.342Z,14.66
2023-09-24T03:23:18.964Z,14.64
2023-09-24T03:25:51.144Z,14.72
2023-09-24T03:28:20.744Z,14.76
2023-09-24T03:30:51.937Z,14.77
2023-09-24T03:33:21.626Z,14.81
2023-09-24T03:35:51.365Z,14.78
2023-09-24T03:38:20.971Z,14.73
2023-09-24T03:40:53.317Z,14.72
2023-09-24T03:43:23.101Z,14.73
2023-09-24T03:45:53.233Z,14.69
2023-09-24T03:48:23.772Z,14.67
2023-09-24T03:50:54.468Z,14.72
2023-09-24T03:53:24.034Z,14.73
2023-09-24T03:55:56.780Z,14.71
2023-09-24T03:58:26.167Z,14.74
2023-09-24T04:00:55.714Z,14.75
2023-09-24T04:03:25.581Z,14.66
2023-09-24T04:05:56.938Z,14.60
2023-09-24T04:08:26.609Z,14.50
2023-09-24T04:10:58.770Z,14.56
2023-09-24T04:13:28.333Z,14.60
2023-09-24T04:15:57.996Z,14.66
2023-09-24T04:18:27.784Z,14.71
2023-09-24T04:20:57.405Z,14.67
2023-09-24T04:23:27.584Z,14.67
2023-09-24T04:25:59.813Z,14.68
2023-09-24T04:28:29.409Z,14.67
2023-09-24T04:30:59.212Z,14.65
2023-09-24T04:33:29.039Z,14.64
2023-09-24T04:35:58.885Z,14.67
2023-09-24T04:38:28.533Z,14.69
2023-09-24T04:41:00.882Z,14.72
2023-09-24T04:43:30.420Z,14.75
2023-09-24T04:46:00.331Z,14.76
2023-09-24T04:48:31.820Z,14.69
2023-09-24T04:51:01.540Z,14.76
2023-09-24T04:53:31.862Z,14.79
2023-09-24T04:56:10.391Z,14.72
2023-09-24T04:58:39.921Z,14.73
2023-09-24T05:01:10.013Z,14.79
2023-09-24T05:03:43.677Z,14.85
2023-09-24T05:06:14.960Z,14.87
2023-09-24T05:08:44.691Z,14.88
2023-09-24T05:11:17.578Z,14.91
2023-09-24T05:13:48.572Z,14.84
2023-09-24T05:16:20.455Z,14.92
2023-09-24T05:18:50.199Z,14.92
2023-09-24T05:21:21.698Z,14.88
2023-09-24T05:23:49.016Z,14.91
2023-09-24T05:26:21.308Z,14.99
2023-09-24T05:28:51.086Z,15.02
2023-09-24T05:31:20.786Z,15.02
2023-09-24T05:33:51.316Z,15.01
2023-09-24T05:36:23.535Z,15.03
2023-09-24T05:38:53.886Z,15.03
2023-09-24T05:41:26.073Z,15.01
2023-09-24T05:44:04.869Z,15.05
2023-09-24T05:46:34.537Z,15.10
2023-09-24T05:49:05.990Z,15.09
2023-09-24T05:51:35.558Z,15.09
2023-09-24T05:54:05.183Z,15.12
2023-09-24T05:56:37.426Z,15.08
2023-09-24T05:59:07.034Z,15.09
2023-09-24T06:01:36.644Z,15.10
2023-09-24T06:04:06.455Z,15.06
2023-09-24T06:06:36.240Z,15.01
2023-09-24T06:09:09.906Z,15.09
2023-09-24T06:11:42.300Z,15.14
2023-09-24T06:14:12.216Z,15.11
2023-09-24T06:16:41.812Z,15.14
2023-09-24T06:19:11.422Z,15.12
2023-09-24T06:21:41.056Z,15.13
2023-09-24T06:24:11.063Z,15.12
2023-09-24T06:26:43.728Z,15.04
2023-09-24T06:29:13.330Z,15.12
2023-09-24T06:31:42.942Z,15.08
2023-09-24T06:34:12.532Z,15.12
2023-09-24T06:36:42.080Z,15.15
2023-09-24T06:39:15.401Z,15.19
2023-09-24T06:41:47.755Z,15.13
2023-09-24T06:44:26.022Z,15.17
2023-09-24T06:46:57.135Z,15.19
2023-09-24T06:49:26.694Z,15.20
2023-09-24T06:51:56.611Z,15.21
2023-09-24T06:54:27.097Z,15.24
2023-09-24T06:56:59.861Z,15.24
2023-09-24T06:59:29.589Z,15.28
2023-09-24T07:01:59.186Z,15.26
2023-09-24T07:04:28.883Z,15.25
2023-09-24T07:06:58.654Z,15.24
2023-09-24T07:09:28.343Z,15.26
2023-09-24T07:12:00.484Z,15.28
2023-09-24T07:14:33.741Z,15.34
2023-09-24T07:17:06.122Z,15.37
2023-09-24T07:19:37.124Z,15.35
2023-09-24T07:22:06.762Z,15.38
2023-09-24T07:24:36.330Z,15.41
2023-09-24T07:27:08.587Z,15.45
2023-09-24T07:29:38.194Z,15.48
2023-09-24T07:32:08.021Z,15.53
2023-09-24T07:34:37.624Z,15.50
2023-09-24T07:37:14.941Z,15.55
2023-09-24T07:39:45.046Z,15.54
2023-09-24T07:42:17.344Z,15.53
2023-09-24T07:44:47.151Z,15.53
2023-09-24T07:47:16.822Z,15.52
2023-09-24T07:49:46.900Z,15.53
2023-09-24T07:52:16.479Z,15.59
2023-09-24T07:54:48.388Z,15.59
2023-09-24T07:57:21.224Z,15.64
2023-09-24T07:59:50.839Z,15.79
2023-09-24T08:02:20.504Z,15.77
2023-09-24T08:04:50.232Z,15.78
2023-09-24T08:07:19.825Z,15.86
2023-09-24T08:09:49.483Z,15.91
2023-09-24T08:12:22.175Z,15.95
2023-09-24T08:14:52.041Z,15.98
2023-09-24T08:17:21.700Z,16.05
2023-09-24T08:19:51.248Z,16.09
2023-09-24T08:22:22.592Z,16.16
2023-09-24T08:24:52.606Z,16.14
2023-09-24T08:27:24.897Z,16.16
2023-09-24T08:29:56.875Z,16.17
2023-09-24T08:32:27.124Z,16.18
2023-09-24T08:34:56.716Z,16.19
2023-09-24T08:37:26.266Z,16.22
2023-09-24T08:39:55.824Z,16.22
2023-09-24T08:42:29.341Z,16.15
2023-09-24T08:45:11.804Z,16.08
2023-09-24T08:47:42.231Z,16.17
2023-09-24T08:50:13.010Z,16.17
2023-09-24T08:52:44.302Z,16.13
2023-09-24T08:55:15.473Z,16.15
2023-09-24T08:57:49.207Z,16.19
2023-09-24T09:00:19.613Z,16.21
2023-09-24T09:02:49.357Z,16.24
2023-09-24T09:05:25.805Z,16.34
2023-09-24T09:08:00.225Z,16.42
2023-09-24T09:10:34.178Z,16.48
2023-09-24T09:13:12.663Z,16.40
2023-09-24T09:15:43.991Z,16.43
2023-09-24T09:18:25.647Z,16.52
2023-09-24T09:21:00.673Z,16.53
2023-09-24T09:23:36.073Z,16.48
2023-09-24T09:26:07.914Z,16.50
2023-09-24T09:28:40.099Z,16.57
2023-09-24T09:31:11.551Z,16.62
2023-09-24T09:33:42.960Z,16.58
2023-09-24T09:36:24.278Z,16.67
2023-09-24T09:38:54.337Z,16.69
2023-09-24T09:41:25.653Z,17.00
2023-09-24T09:43:58.453Z,17.00
2023-09-24T09:46:28.595Z,16.84
2023-09-24T09:49:00.342Z,16.82
2023-09-24T09:51:33.822Z,16.80
2023-09-24T09:54:09.273Z,16.84
2023-09-24T09:56:40.192Z,16.87
2023-09-24T09:59:13.597Z,16.84
2023-09-24T10:01:43.220Z,17.02
2023-09-24T10:04:13.633Z,16.95
2023-09-24T10:06:44.511Z,16.90
2023-09-24T10:09:39.012Z,16.95
2023-09-24T10:12:10.489Z,16.99
2023-09-24T10:14:44.627Z,16.97
2023-09-24T10:17:27.746Z,17.17
2023-09-24T10:20:00.457Z,17.50
2023-09-24T10:22:30.770Z,17.26
2023-09-24T10:25:00.857Z,17.19
2023-09-24T10:27:34.263Z,17.21
2023-09-24T10:30:16.245Z,17.27
2023-09-24T10:32:50.880Z,17.32
2023-09-24T10:35:21.387Z,17.29
2023-09-24T10:38:01.127Z,17.33
2023-09-24T10:40:31.180Z,17.37
2023-09-24T10:43:19.366Z,17.43
2023-09-24T10:45:53.698Z,17.48
2023-09-24T10:48:35.972Z,17.56
2023-09-24T10:51:09.726Z,17.71
2023-09-24T10:53:39.348Z,17.70
2023-09-24T10:56:12.958Z,17.78
2023-09-24T10:58:50.967Z,17.86
2023-09-24T11:01:32.743Z,18.06
2023-09-24T11:04:02.664Z,18.17
2023-09-24T11:06:33.768Z,18.24
2023-09-24T11:09:19.887Z,18.38
2023-09-24T11:11:51.034Z,18.39
2023-09-24T11:14:24.223Z,18.47
2023-09-24T11:16:58.380Z,18.51
2023-09-24T11:19:46.028Z,18.58
2023-09-24T11:22:22.061Z,18.51
2023-09-24T11:25:07.643Z,18.34
2023-09-24T11:27:37.976Z,18.21
2023-09-24T11:30:09.968Z,18.26
2023-09-24T11:32:42.218Z,18.23
2023-09-24T11:35:12.899Z,18.52
2023-09-24T11:37:59.075Z,18.58
2023-09-24T11:40:30.748Z,18.59
2023-09-24T11:43:02.152Z,18.50
2023-09-24T11:45:43.862Z,18.65
2023-09-24T11:48:17.601Z,19.02
2023-09-24T11:50:49.282Z,19.03
2023-09-24T11:53:21.798Z,19.01
2023-09-24T11:55:53.965Z,18.78
2023-09-24T11:58:27.621Z,18.67
2023-09-24T12:00:59.213Z,18.86
2023-09-24T12:03:31.757Z,18.86
2023-09-24T12:06:01.516Z,19.23
2023-09-24T12:08:31.360Z,19.20
2023-09-24T12:11:00.979Z,19.23
2023-09-24T12:13:34.536Z,19.34
2023-09-24T12:16:04.929Z,19.29
2023-09-24T12:18:37.310Z,19.59
2023-09-24T12:21:07.395Z,19.53
2023-09-24T12:23:37.066Z,19.66
2023-09-24T12:26:06.683Z,19.72
2023-09-24T12:28:36.269Z,19.60
2023-09-24T12:31:05.876Z,19.71
2023-09-24T12:33:38.120Z,19.79
2023-09-24T12:36:08.354Z,19.70
2023-09-24T12:38:37.981Z,19.92
2023-09-24T12:43:50.295Z,20.02
2023-09-24T12:46:19.997Z,19.86
2023-09-24T12:48:52.293Z,19.82
2023-09-24T12:51:21.918Z,19.93
2023-09-24T12:53:52.144Z,19.95
2023-09-24T12:56:22.712Z,19.91
2023-09-24T12:58:54.641Z,19.99
2023-09-24T13:01:24.352Z,20.06
2023-09-24T13:03:56.881Z,20.21
2023-09-24T13:06:27.625Z,20.09
2023-09-24T13:08:57.244Z,20.24
2023-09-24T13:11:26.841Z,20.15
2023-09-24T13:13:56.424Z,20.31
2023-09-24T13:16:26.085Z,20.41
2023-09-24T13:18:58.386Z,20.43
2023-09-24T13:21:29.081Z,20.38
2023-09-24T13:23:58.771Z,20.38
2023-09-24T13:26:28.355Z,20.29
2023-09-24T13:28:58.176Z,20.42
2023-09-24T13:31:28.473Z,20.56
2023-09-24T13:34:03.524Z,20.55
2023-09-24T13:36:33.124Z,20.46
2023-09-24T13:39:04.109Z,20.50
2023-09-24T13:41:34.230Z,20.37
2023-09-24T13:44:04.407Z,20.62
2023-09-24T13:46:34.776Z,20.33
2023-09-24T13:49:08.332Z,20.43
2023-09-24T13:51:42.917Z,20.46
2023-09-24T13:54:12.750Z,20.44
2023-09-24T13:56:42.459Z,20.52
2023-09-24T13:59:13.079Z,20.49
2023-09-24T14:01:42.707Z,20.44
2023-09-24T14:04:15.028Z,20.36
2023-09-24T14:06:46.124Z,20.44
2023-09-24T14:09:28.272Z,20.48
2023-09-24T14:12:10.646Z,20.49
2023-09-24T14:14:40.256Z,20.49
2023-09-24T14:17:09.841Z,20.44
2023-09-24T14:19:42.212Z,20.45
2023-09-24T14:22:11.790Z,20.63
2023-09-24T14:24:42.687Z,20.54
2023-09-24T14:27:12.641Z,20.49
2023-09-24T14:29:42.245Z,20.51
2023-09-24T14:32:11.818Z,20.50
2023-09-24T14:34:44.231Z,20.54
2023-09-24T14:37:15.026Z,20.55
2023-09-24T14:39:44.601Z,20.36
2023-09-24T14:42:14.229Z,20.32
2023-09-24T14:44:44.059Z,20.22
2023-09-24T14:47:14.498Z,20.11
2023-09-24T14:49:46.657Z,20.05
2023-09-24T14:52:16.222Z,20.18
2023-09-24T14:54:45.764Z,20.02
2023-09-24T14:57:15.342Z,19.95
2023-09-24T14:59:45.025Z,19.84
2023-09-24T15:02:14.682Z,19.76
2023-09-24T15:04:46.878Z,19.80
2023-09-24T15:07:16.468Z,19.83
2023-09-24T15:09:46.059Z,19.70
2023-09-24T15:12:16.818Z,19.85
2023-09-24T15:14:46.506Z,19.75
2023-09-24T15:17:16.099Z,19.70
2023-09-24T15:19:48.283Z,19.61
2023-09-24T15:22:17.817Z,19.73
2023-09-24T15:24:47.400Z,19.64
2023-09-24T15:27:17.004Z,20.05
2023-09-24T15:29:46.632Z,19.73
2023-09-24T15:32:16.422Z,19.75
2023-09-24T15:34:48.745Z,19.62
2023-09-24T15:37:18.548Z,19.60
2023-09-24T15:39:48.240Z,19.66
2023-09-24T15:42:17.865Z,19.63
2023-09-24T15:44:47.628Z,19.60
2023-09-24T15:47:17.232Z,19.57
2023-09-24T15:49:49.559Z,19.44
2023-09-24T15:52:19.108Z,19.35
2023-09-24T15:54:48.670Z,19.46
2023-09-24T15:57:18.272Z,19.39
2023-09-24T15:59:48.264Z,19.28
2023-09-24T16:02:17.878Z,19.35
2023-09-24T16:04:50.026Z,19.46
2023-09-24T16:07:20.409Z,19.46
2023-09-24T16:09:50.892Z,19.31
2023-09-24T16:12:20.518Z,19.20
2023-09-24T16:14:50.134Z,19.25
2023-09-24T16:17:20.106Z,19.15
2023-09-24T16:19:52.422Z,19.09
2023-09-24T16:22:21.979Z,19.13
2023-09-24T16:24:54.692Z,19.08
2023-09-24T16:27:25.078Z,19.03
2023-09-24T16:29:55.227Z,19.02
2023-09-24T16:32:25.002Z,19.00
2023-09-24T16:34:57.230Z,19.03
2023-09-24T16:37:26.834Z,18.94
2023-09-24T16:39:56.522Z,18.99
2023-09-24T16:42:26.909Z,18.92
2023-09-24T16:44:58.520Z,18.89
2023-09-24T16:47:28.196Z,18.84
2023-09-24T16:50:00.363Z,18.81
2023-09-24T16:52:29.968Z,18.77
2023-09-24T16:54:59.908Z,18.71
2023-09-24T16:57:29.522Z,18.65
2023-09-24T16:59:59.097Z,18.64
2023-09-24T17:02:28.837Z,18.56
2023-09-24T17:05:01.142Z,18.57
2023-09-24T17:07:30.745Z,18.46
2023-09-24T17:10:01.920Z,18.37
2023-09-24T17:12:32.117Z,18.31
2023-09-24T17:15:02.638Z,18.25
2023-09-24T17:17:33.265Z,18.19
2023-09-24T17:20:05.650Z,18.17
2023-09-24T17:22:35.237Z,18.15
2023-09-24T17:25:05.203Z,18.14
2023-09-24T17:27:35.439Z,18.09
2023-09-24T17:30:07.864Z,18.00
2023-09-24T17:32:37.556Z,17.94
2023-09-24T17:35:10.972Z,17.96
2023-09-24T17:37:40.557Z,17.94
2023-09-24T17:40:11.676Z,17.94
2023-09-24T17:42:41.597Z,17.91
2023-09-24T17:45:13.265Z,17.99
2023-09-24T17:47:42.938Z,18.00
2023-09-24T17:50:15.155Z,17.98
2023-09-24T17:52:44.688Z,17.94
2023-09-24T17:55:14.241Z,17.89
2023-09-24T17:57:43.815Z,17.85
2023-09-24T18:00:15.402Z,17.83
2023-09-24T18:02:45.610Z,17.78
2023-09-24T18:05:17.888Z,17.77
2023-09-24T18:07:47.554Z,17.70
2023-09-24T18:10:17.305Z,17.70
2023-09-24T18:12:46.884Z,17.65
2023-09-24T18:15:16.604Z,17.65
2023-09-24T18:17:46.465Z,17.60
2023-09-24T18:20:18.604Z,17.56
2023-09-24T18:22:48.159Z,17.51
2023-09-24T18:25:17.982Z,17.52
2023-09-24T18:27:47.529Z,17.53
2023-09-24T18:30:17.469Z,17.47
2023-09-24T18:32:47.234Z,17.37
2023-09-24T18:35:19.673Z,17.42
2023-09-24T18:37:49.235Z,17.38
2023-09-24T18:40:18.955Z,17.39
2023-09-24T18:42:48.565Z,17.43
2023-09-24T18:45:18.387Z,17.34
2023-09-24T18:47:48.129Z,17.36
2023-09-24T18:50:20.554Z,17.33
2023-09-24T18:52:50.145Z,17.28
2023-09-24T18:55:19.859Z,17.22
2023-09-24T18:57:49.460Z,17.21
2023-09-24T19:00:19.995Z,17.18
2023-09-24T19:02:50.070Z,17.12
2023-09-24T19:05:22.621Z,17.15
2023-09-24T19:07:53.409Z,17.11
2023-09-24T19:10:23.000Z,17.07
2023-09-24T19:12:52.584Z,17.08
2023-09-24T19:15:22.404Z,17.04
2023-09-24T19:17:52.149Z,16.97
2023-09-24T19:20:24.993Z,16.97
2023-09-24T19:22:54.347Z,16.93
2023-09-24T19:25:23.909Z,16.98
2023-09-24T19:27:53.503Z,16.97
2023-09-24T19:30:24.438Z,16.91
2023-09-24T19:32:54.128Z,16.91
2023-09-24T19:35:26.378Z,16.86
2023-09-24T19:37:55.952Z,16.81
2023-09-24T19:40:25.560Z,16.73
2023-09-24T19:42:55.899Z,16.70
2023-09-24T19:45:26.857Z,16.64
2023-09-24T19:47:56.651Z,16.64
2023-09-24T19:50:28.833Z,16.53
2023-09-24T19:52:58.370Z,16.55
2023-09-24T19:55:27.943Z,16.51
2023-09-24T19:57:57.490Z,16.51
2023-09-24T20:00:27.142Z,16.44
2023-09-24T20:02:56.759Z,16.43
2023-09-24T20:05:29.020Z,16.41
2023-09-24T20:07:58.598Z,16.42
2023-09-24T20:10:28.428Z,16.40
2023-09-24T20:12:58.013Z,16.38
2023-09-24T20:15:28.765Z,16.34
2023-09-24T20:17:58.483Z,16.36
2023-09-24T20:20:30.778Z,16.32
2023-09-24T20:23:00.344Z,16.32
2023-09-24T20:25:38.544Z,16.31
2023-09-24T20:28:08.550Z,16.28
2023-09-24T20:30:38.600Z,16.30
2023-09-24T20:33:21.117Z,16.25
2023-09-24T20:35:57.993Z,16.19
2023-09-24T20:38:27.730Z,16.20
2023-09-24T20:41:07.908Z,16.18
2023-09-24T20:43:37.836Z,16.13
2023-09-24T20:46:08.898Z,16.15
2023-09-24T20:48:38.520Z,16.11
2023-09-24T20:51:11.253Z,16.07
2023-09-24T20:53:41.140Z,16.10
2023-09-24T20:56:10.810Z,16.04
2023-09-24T20:58:40.414Z,16.07
2023-09-24T21:01:11.522Z,16.02
2023-09-24T21:03:41.247Z,15.98
2023-09-24T21:06:13.891Z,15.99
2023-09-24T21:08:43.557Z,15.88
2023-09-24T21:11:13.139Z,15.79
2023-09-24T21:13:44.426Z,15.71
2023-09-24T21:16:14.142Z,15.68
2023-09-24T21:18:43.765Z,15.61
2023-09-24T21:21:16.508Z,15.62
2023-09-24T21:23:46.104Z,15.50
2023-09-24T21:26:16.425Z,15.48
2023-09-24T21:28:46.815Z,15.46
2023-09-24T21:31:16.471Z,15.46
2023-09-24T21:33:47.075Z,15.42
2023-09-24T21:36:19.367Z,15.42
2023-09-24T21:38:51.747Z,15.40
2023-09-24T21:41:21.403Z,15.40
2023-09-24T21:43:50.967Z,15.34
2023-09-24T21:46:20.693Z,15.34
2023-09-24T21:48:53.519Z,15.28
2023-09-24T21:51:25.839Z,15.25
2023-09-24T21:53:56.111Z,15.26
2023-09-24T21:56:26.248Z,15.27
2023-09-24T21:58:55.833Z,15.18
2023-09-24T22:01:25.627Z,15.16
2023-09-24T22:03:55.396Z,15.11
2023-09-24T22:06:30.198Z,15.12
2023-09-24T22:09:00.045Z,15.14
2023-09-24T22:11:30.109Z,15.20
2023-09-24T22:13:59.817Z,15.22
2023-09-24T22:16:29.389Z,15.13
2023-09-24T22:18:59.042Z,15.08
2023-09-24T22:21:31.335Z,15.16
2023-09-24T22:24:03.555Z,15.07
2023-09-24T22:26:33.588Z,15.07
2023-09-24T22:29:03.958Z,15.03
2023-09-24T22:31:33.561Z,14.97
2023-09-24T22:34:04.464Z,14.98
2023-09-24T22:36:36.812Z,14.97
2023-09-24T22:39:06.709Z,14.94
2023-09-24T22:41:36.465Z,14.87
2023-09-24T22:44:06.145Z,14.84
2023-09-24T22:46:35.970Z,14.88
2023-09-24T22:49:05.613Z,14.82
2023-09-24T22:51:37.853Z,14.77
2023-09-24T22:54:07.257Z,14.72
2023-09-24T22:56:37.162Z,14.68
2023-09-24T22:59:06.751Z,14.77
2023-09-24T23:01:36.404Z,14.76
2023-09-24T23:04:06.380Z,14.74
2023-09-24T23:06:39.876Z,14.70
2023-09-24T23:09:10.009Z,14.61
2023-09-24T23:11:39.621Z,14.61
2023-09-24T23:14:09.177Z,14.65
2023-09-24T23:16:42.301Z,14.64
2023-09-24T23:19:12.272Z,14.58
2023-09-24T23:21:44.589Z,14.53
2023-09-24T23:24:15.077Z,14.51
2023-09-24T23:26:44.749Z,14.53
2023-09-24T23:29:15.255Z,14.50
2023-09-24T23:31:44.900Z,14.47
2023-09-24T23:34:14.484Z,14.42
2023-09-24T23:36:46.712Z,14.34
2023-09-24T23:39:17.369Z,14.36
2023-09-24T23:41:47.165Z,14.42
2023-09-24T23:44:16.809Z,14.39
2023-09-24T23:46:46.403Z,14.38
2023-09-24T23:49:16.607Z,14.32
2023-09-24T23:51:51.369Z,14.35
2023-09-24T23:54:22.269Z,14.32
2023-09-24T23:56:51.853Z,14.34
2023-09-24T23:59:21.431Z,14.34
